createdAt,value
2022-11-24T00:00:06.970Z,94.66
2022-11-24T00:05:09.642Z,93.15
2022-11-24T00:10:13.581Z,93.05
2022-11-24T00:15:16.316Z,91.65
2022-11-24T00:20:18.888Z,91.24
2022-11-24T00:25:22.839Z,91.52
2022-11-24T00:30:25.485Z,91.30
2022-11-24T00:35:28.120Z,90.65
2022-11-24T00:40:35.010Z,91.14
2022-11-24T00:45:37.911Z,90.51
2022-11-24T00:50:40.847Z,89.43
2022-11-24T00:55:44.804Z,88.98
2022-11-24T01:00:47.945Z,88.35
2022-11-24T01:05:50.571Z,88.96
2022-11-24T01:10:54.519Z,88.61
2022-11-24T01:15:57.180Z,88.64
2022-11-24T01:21:00.002Z,89.17
2022-11-24T01:26:06.638Z,90.61
2022-11-24T01:31:09.959Z,95.02
2022-11-24T01:36:12.869Z,98.70
2022-11-24T01:41:18.865Z,92.89
2022-11-24T01:46:25.139Z,90.24
2022-11-24T01:51:32.579Z,90.56
2022-11-24T01:56:40.605Z,89.82
2022-11-24T02:01:43.295Z,89.80
2022-11-24T02:06:47.765Z,89.50
2022-11-24T02:11:54.747Z,88.71
2022-11-24T02:16:57.408Z,88.82
2022-11-24T02:22:00.100Z,89.69
2022-11-24T02:27:04.812Z,90.51
2022-11-24T02:32:09.822Z,90.34
2022-11-24T02:37:12.466Z,90.00
2022-11-24T02:42:16.551Z,90.22
2022-11-24T02:47:19.169Z,92.99
2022-11-24T02:52:21.740Z,99.56
2022-11-24T02:57:25.913Z,100.00
2022-11-24T03:02:30.450Z,100.00
2022-11-24T03:07:33.015Z,100.00
2022-11-24T03:12:37.041Z,97.81
2022-11-24T03:17:39.716Z,97.66
2022-11-24T03:22:42.586Z,98.21
2022-11-24T03:27:46.956Z,97.54
2022-11-24T03:32:51.865Z,100.00
2022-11-24T03:37:54.496Z,100.00
2022-11-24T03:42:58.453Z,100.00
2022-11-24T03:48:01.095Z,100.00
2022-11-24T03:53:03.846Z,100.00
2022-11-24T03:58:07.746Z,100.00
2022-11-24T04:03:10.455Z,100.00
2022-11-24T04:08:13.192Z,100.00
2022-11-24T04:13:18.683Z,100.00
2022-11-24T04:18:21.939Z,100.00
2022-11-24T04:23:24.493Z,100.00
2022-11-24T04:28:28.414Z,100.00
2022-11-24T04:33:31.188Z,100.00
2022-11-24T04:39:23.203Z,100.00
2022-11-24T04:43:57.619Z,100.00
2022-11-24T04:49:00.193Z,100.00
2022-11-24T04:54:03.961Z,100.00
2022-11-24T04:59:08.574Z,100.00
2022-11-24T05:04:12.301Z,100.00
2022-11-24T05:09:16.748Z,100.00
2022-11-24T05:14:20.671Z,100.00
2022-11-24T05:19:25.354Z,100.00
2022-11-24T05:24:29.876Z,100.00
2022-11-24T05:29:33.764Z,98.96
2022-11-24T05:34:36.526Z,97.08
2022-11-24T05:39:39.327Z,95.72
2022-11-24T05:44:43.196Z,100.00
2022-11-24T05:49:45.898Z,100.00
2022-11-24T05:54:48.502Z,98.72
2022-11-24T05:59:52.405Z,98.41
2022-11-24T06:04:55.244Z,99.09
2022-11-24T06:09:57.832Z,100.00
2022-11-24T06:15:01.737Z,100.00
2022-11-24T06:20:05.167Z,100.00
2022-11-24T06:25:09.472Z,100.00
2022-11-24T06:30:15.795Z,100.00
2022-11-24T06:35:18.646Z,100.00
2022-11-24T06:40:21.222Z,100.00
2022-11-24T06:45:25.507Z,100.00
2022-11-24T06:50:33.300Z,100.00
2022-11-24T06:55:36.302Z,100.00
2022-11-24T07:00:40.441Z,100.00
2022-11-24T07:05:43.254Z,100.00
2022-11-24T07:10:45.980Z,100.00
2022-11-24T07:15:49.910Z,100.00
2022-11-24T07:20:52.502Z,100.00
2022-11-24T07:25:55.269Z,100.00
2022-11-24T07:31:00.044Z,100.00
2022-11-24T07:36:03.832Z,100.00
2022-11-24T07:41:08.941Z,100.00
2022-11-24T07:46:15.118Z,100.00
2022-11-24T07:51:18.026Z,100.00
2022-11-24T07:56:20.608Z,100.00
2022-11-24T08:01:24.832Z,100.00
2022-11-24T08:06:38.743Z,100.00
2022-11-24T08:11:43.381Z,100.00
2022-11-24T08:16:47.422Z,98.02
2022-11-24T08:21:50.214Z,99.02
2022-11-24T08:26:52.777Z,98.89
2022-11-24T08:31:58.236Z,96.86
2022-11-24T08:37:00.951Z,94.42
2022-11-24T08:42:03.570Z,92.71
2022-11-24T08:47:07.512Z,91.38
2022-11-24T08:52:10.318Z,88.71
2022-11-24T08:57:20.221Z,88.19
2022-11-24T09:02:25.692Z,88.93
2022-11-24T09:07:28.338Z,88.28
2022-11-24T09:12:30.980Z,90.88
2022-11-24T09:17:35.248Z,88.54
2022-11-24T09:22:38.203Z,86.21
2022-11-24T09:27:43.788Z,82.81
2022-11-24T09:32:47.721Z,83.05
2022-11-24T09:37:51.215Z,83.19
2022-11-24T09:43:02.052Z,85.58
2022-11-24T09:48:13.507Z,83.97
2022-11-24T09:53:20.445Z,84.23
2022-11-24T09:58:36.353Z,82.18
2022-11-24T10:03:44.035Z,78.04
2022-11-24T10:09:07.713Z,73.48
2022-11-24T10:14:42.819Z,67.57
2022-11-24T10:19:50.936Z,64.43
2022-11-24T10:25:10.517Z,60.34
2022-11-24T10:30:18.656Z,63.57
2022-11-24T10:35:27.338Z,73.53
2022-11-24T10:46:01.841Z,75.41
2022-11-24T10:51:29.525Z,77.60
2022-11-24T10:56:40.170Z,78.56
2022-11-24T11:01:44.908Z,79.71
2022-11-24T11:06:49.007Z,79.76
2022-11-24T11:11:54.771Z,75.10
2022-11-24T11:16:58.817Z,70.10
2022-11-24T11:22:07.264Z,68.42
2022-11-24T11:27:21.869Z,64.13
2022-11-24T11:37:50.678Z,59.39
2022-11-24T11:43:04.535Z,59.95
2022-11-24T11:48:23.768Z,61.68
2022-11-24T11:53:33.912Z,59.09
2022-11-24T11:58:56.700Z,59.79
2022-11-24T12:04:13.467Z,54.36
2022-11-24T12:09:33.930Z,59.50
2022-11-24T12:14:48.841Z,63.13
2022-11-24T12:20:04.324Z,66.00
2022-11-24T12:25:23.506Z,63.38
2022-11-24T12:30:29.603Z,57.53
2022-11-24T12:35:39.673Z,55.07
2022-11-24T12:41:18.023Z,56.72
2022-11-24T12:46:26.782Z,61.54
2022-11-24T12:51:33.039Z,65.60
2022-11-24T12:56:43.487Z,69.04
2022-11-24T13:01:54.436Z,74.22
2022-11-24T13:07:02.214Z,75.73
2022-11-24T13:12:14.247Z,76.27
2022-11-24T13:17:36.330Z,76.63
2022-11-24T13:22:54.774Z,75.56
2022-11-24T13:27:59.700Z,74.63
2022-11-24T13:33:21.647Z,75.45
2022-11-24T13:38:51.980Z,75.40
2022-11-24T13:44:24.429Z,76.25
2022-11-24T13:49:39.031Z,77.79
2022-11-24T13:54:42.207Z,76.91
2022-11-24T13:59:46.192Z,78.46
2022-11-24T14:04:49.104Z,78.64
2022-11-24T14:09:53.035Z,79.41
2022-11-24T14:15:21.879Z,78.11
2022-11-24T14:20:26.418Z,76.88
2022-11-24T14:25:30.850Z,77.36
2022-11-24T14:30:34.828Z,78.56
2022-11-24T14:35:45.264Z,78.14
2022-11-24T14:40:51.668Z,77.66
2022-11-24T14:45:58.586Z,78.27
2022-11-24T14:51:13.819Z,79.36
2022-11-24T14:56:27.939Z,80.03
2022-11-24T15:01:36.075Z,80.20
2022-11-24T15:06:39.250Z,80.53
2022-11-24T15:11:41.969Z,83.38
2022-11-24T15:16:46.111Z,83.36
2022-11-24T15:21:48.725Z,84.53
2022-11-24T15:26:51.334Z,84.12
2022-11-24T15:31:55.309Z,83.97
2022-11-24T15:36:57.876Z,85.02
2022-11-24T15:42:00.620Z,83.82
2022-11-24T15:47:06.600Z,83.84
2022-11-24T15:52:09.229Z,83.93
2022-11-24T15:57:11.907Z,84.77
2022-11-24T16:02:15.913Z,87.03
2022-11-24T16:07:21.047Z,84.75
2022-11-24T16:12:24.776Z,84.96
2022-11-24T16:17:28.706Z,85.88
2022-11-24T16:22:31.244Z,91.36
2022-11-24T16:27:33.829Z,89.79
2022-11-24T16:32:37.719Z,97.34
2022-11-24T16:37:40.287Z,98.11
2022-11-24T16:42:42.861Z,98.22
2022-11-24T16:47:46.842Z,96.05
2022-11-24T16:52:51.527Z,92.66
2022-11-24T16:57:54.318Z,91.62
2022-11-24T17:02:58.225Z,91.26
2022-11-24T17:08:05.707Z,92.22
2022-11-24T17:13:08.555Z,94.04
2022-11-24T17:18:24.436Z,91.29
2022-11-24T17:23:28.082Z,90.31
2022-11-24T17:28:30.839Z,89.83
2022-11-24T17:33:36.545Z,98.58
2022-11-24T17:38:39.090Z,100.00
2022-11-24T17:43:41.954Z,100.00
2022-11-24T17:48:46.712Z,100.00
2022-11-24T17:53:50.988Z,100.00
2022-11-24T17:58:55.110Z,100.00
2022-11-24T18:03:59.244Z,95.76
2022-11-24T18:09:01.793Z,96.14
2022-11-24T18:14:05.233Z,100.00
2022-11-24T18:19:11.002Z,100.00
2022-11-24T18:24:17.488Z,98.28
2022-11-24T18:29:23.663Z,96.87
2022-11-24T18:34:27.525Z,96.03
2022-11-24T18:39:30.507Z,97.96
2022-11-24T18:44:33.386Z,95.71
2022-11-24T18:49:37.651Z,96.73
2022-11-24T18:54:40.301Z,96.37
2022-11-24T18:59:42.824Z,94.52
2022-11-24T19:04:46.703Z,94.98
2022-11-24T19:09:49.304Z,98.30
2022-11-24T19:14:51.930Z,96.79
2022-11-24T19:19:55.902Z,94.15
2022-11-24T19:24:58.445Z,95.03
2022-11-24T19:30:00.972Z,91.51
2022-11-24T19:35:05.577Z,89.64
2022-11-24T19:40:08.841Z,89.24
2022-11-24T19:45:12.161Z,90.10
2022-11-24T19:50:16.218Z,99.11
2022-11-24T19:55:18.795Z,99.21
2022-11-24T20:00:21.865Z,96.38
2022-11-24T20:05:25.757Z,93.52
2022-11-24T20:10:28.415Z,92.26
2022-11-24T20:15:33.360Z,91.48
2022-11-24T20:20:37.258Z,94.66
2022-11-24T20:25:39.834Z,100.00
2022-11-24T20:30:42.510Z,100.00
2022-11-24T20:35:46.499Z,100.00
2022-11-24T20:40:49.076Z,100.00
2022-11-24T20:45:51.692Z,100.00
2022-11-24T20:50:55.731Z,100.00
2022-11-24T20:56:05.859Z,100.00
2022-11-24T21:01:11.517Z,100.00
2022-11-24T21:06:15.847Z,100.00
2022-11-24T21:11:20.901Z,100.00
2022-11-24T21:16:26.081Z,100.00
2022-11-24T21:21:34.009Z,100.00
2022-11-24T21:26:37.880Z,100.00
2022-11-24T21:31:40.845Z,100.00
2022-11-24T21:36:45.480Z,100.00
2022-11-24T21:41:48.193Z,100.00
2022-11-24T21:46:55.728Z,100.00
2022-11-24T21:52:00.069Z,100.00
2022-11-24T21:57:02.611Z,100.00
2022-11-24T22:02:08.909Z,99.32
2022-11-24T22:07:16.838Z,97.22
2022-11-24T22:12:19.493Z,100.00
2022-11-24T22:17:22.134Z,100.00
2022-11-24T22:22:26.282Z,100.00
2022-11-24T22:27:28.839Z,100.00
2022-11-24T22:32:31.425Z,100.00
2022-11-24T22:37:37.004Z,100.00
2022-11-24T22:42:39.655Z,100.00
2022-11-24T22:47:42.193Z,100.00
2022-11-24T22:52:50.918Z,100.00
2022-11-24T22:57:56.952Z,100.00
2022-11-24T23:02:59.833Z,100.00
2022-11-24T23:08:03.799Z,100.00
2022-11-24T23:13:09.345Z,99.05
2022-11-24T23:18:11.953Z,97.97
2022-11-24T23:23:15.818Z,96.41
2022-11-24T23:28:18.404Z,97.04
2022-11-24T23:33:20.973Z,100.00
2022-11-24T23:38:30.053Z,100.00
2022-11-24T23:43:32.712Z,100.00
2022-11-24T23:48:37.572Z,100.00
2022-11-24T23:53:42.316Z,100.00
2022-11-24T23:58:45.410Z,100.00
